createdAt,value
2018-09-04T00:00:07.760Z,99.30
2018-09-04T00:02:36.837Z,99.40
2018-09-04T00:05:06.152Z,99.40
2018-09-04T00:07:35.282Z,99.30
2018-09-04T00:10:04.845Z,99.50
2018-09-04T00:12:33.963Z,99.00
2018-09-04T00:15:03.256Z,99.00
2018-09-04T00:17:32.356Z,99.00
2018-09-04T00:20:01.555Z,99.10
2018-09-04T00:22:30.697Z,99.50
2018-09-04T00:24:59.875Z,99.80
2018-09-04T00:27:29.004Z,99.90
2018-09-04T00:29:58.317Z,99.80
2018-09-04T00:32:27.489Z,99.90
2018-09-04T00:34:56.678Z,99.90
2018-09-04T00:37:25.885Z,99.90
2018-09-04T00:39:55.079Z,99.90
2018-09-04T00:42:24.189Z,99.90
2018-09-04T00:44:53.593Z,99.90
2018-09-04T00:47:22.726Z,99.90
2018-09-04T00:49:51.797Z,99.90
2018-09-04T00:52:20.920Z,99.90
2018-09-04T00:54:50.041Z,99.90
2018-09-04T00:57:19.183Z,99.90
2018-09-04T00:59:48.303Z,99.90
2018-09-04T01:02:17.520Z,99.90
2018-09-04T01:04:47.676Z,99.90
2018-09-04T01:07:17.353Z,99.90
2018-09-04T01:09:46.497Z,99.90
2018-09-04T01:12:15.647Z,99.90
2018-09-04T01:14:44.794Z,99.90
2018-09-04T01:17:13.918Z,99.90
2018-09-04T01:19:43.061Z,99.90
2018-09-04T01:22:12.231Z,99.90
2018-09-04T01:24:41.361Z,99.90
2018-09-04T01:27:10.518Z,99.90
2018-09-04T01:29:39.649Z,99.90
2018-09-04T01:32:08.796Z,99.90
2018-09-04T01:34:37.906Z,99.90
2018-09-04T01:37:07.140Z,99.90
2018-09-04T01:39:36.262Z,99.90
2018-09-04T01:42:05.406Z,99.90
2018-09-04T01:44:34.494Z,99.90
2018-09-04T01:47:03.730Z,99.90
2018-09-04T01:49:32.990Z,99.90
2018-09-04T01:52:02.101Z,99.90
2018-09-04T01:54:31.230Z,99.90
2018-09-04T01:57:00.383Z,99.90
2018-09-04T01:59:29.522Z,99.90
2018-09-04T02:01:58.721Z,99.90
2018-09-04T02:04:27.866Z,99.90
2018-09-04T02:06:57.066Z,99.90
2018-09-04T02:09:26.920Z,99.90
2018-09-04T02:11:56.503Z,99.90
2018-09-04T02:14:25.670Z,99.90
2018-09-04T02:16:54.945Z,99.90
2018-09-04T02:19:24.057Z,99.90
2018-09-04T02:21:53.176Z,99.90
2018-09-04T02:24:22.336Z,99.90
2018-09-04T02:26:51.474Z,99.90
2018-09-04T02:29:20.598Z,99.90
2018-09-04T02:31:49.802Z,99.90
2018-09-04T02:34:18.909Z,99.90
2018-09-04T02:36:48.076Z,99.90
2018-09-04T02:39:17.182Z,99.90
2018-09-04T02:41:46.302Z,99.90
2018-09-04T02:44:15.441Z,99.90
2018-09-04T02:46:44.558Z,99.90
2018-09-04T02:49:13.725Z,99.90
2018-09-04T02:51:42.860Z,99.90
2018-09-04T02:54:12.025Z,99.90
2018-09-04T02:56:41.143Z,99.90
2018-09-04T02:59:10.286Z,99.90
2018-09-04T03:01:39.421Z,99.90
2018-09-04T03:04:08.546Z,99.90
2018-09-04T03:06:37.685Z,99.90
2018-09-04T03:09:07.114Z,99.90
2018-09-04T03:11:36.306Z,99.90
2018-09-04T03:14:05.439Z,99.90
2018-09-04T03:16:34.591Z,99.90
2018-09-04T03:19:03.895Z,99.90
2018-09-04T03:21:33.026Z,99.90
2018-09-04T03:24:02.175Z,99.90
2018-09-04T03:26:31.932Z,99.90
2018-09-04T03:29:01.102Z,99.90
2018-09-04T03:31:30.225Z,99.90
2018-09-04T03:33:59.367Z,99.90
2018-09-04T03:36:28.522Z,99.90
2018-09-04T03:38:57.891Z,99.90
2018-09-04T03:41:27.059Z,99.90
2018-09-04T03:43:56.173Z,99.90
2018-09-04T03:46:25.298Z,99.90
2018-09-04T03:48:54.490Z,99.90
2018-09-04T03:51:23.634Z,99.90
2018-09-04T03:53:52.809Z,99.90
2018-09-04T03:56:21.937Z,99.90
2018-09-04T03:58:51.065Z,99.90
2018-09-04T04:01:20.206Z,99.90
2018-09-04T04:03:49.369Z,99.90
2018-09-04T04:06:18.511Z,99.90
2018-09-04T04:08:47.694Z,99.90
2018-09-04T04:11:16.828Z,99.90
2018-09-04T04:13:45.984Z,99.90
2018-09-04T04:16:15.121Z,99.90
2018-09-04T04:18:44.273Z,99.90
2018-09-04T04:21:13.413Z,99.90
2018-09-04T04:23:42.566Z,99.90
2018-09-04T04:26:11.701Z,99.90
2018-09-04T04:28:40.869Z,99.90
2018-09-04T04:31:10.016Z,99.90
2018-09-04T04:33:39.179Z,99.90
2018-09-04T04:36:08.389Z,99.90
2018-09-04T04:38:37.521Z,99.90
2018-09-04T04:41:06.681Z,99.90
2018-09-04T04:43:35.848Z,99.90
2018-09-04T04:46:05.053Z,99.70
2018-09-04T04:48:34.215Z,99.70
2018-09-04T04:51:03.375Z,99.70
2018-09-04T04:53:32.596Z,99.80
2018-09-04T04:56:01.722Z,99.60
2018-09-04T04:58:30.906Z,99.50
2018-09-04T05:01:00.109Z,99.40
2018-09-04T05:03:29.233Z,99.40
2018-09-04T05:05:58.381Z,99.50
2018-09-04T05:08:27.579Z,99.50
2018-09-04T05:10:57.624Z,99.40
2018-09-04T05:13:26.742Z,99.20
2018-09-04T05:15:55.911Z,99.30
2018-09-04T05:18:25.093Z,99.20
2018-09-04T05:20:54.403Z,99.20
2018-09-04T05:23:23.513Z,99.00
2018-09-04T05:25:52.623Z,98.90
2018-09-04T05:28:21.783Z,99.10
2018-09-04T05:30:50.891Z,99.20
2018-09-04T05:33:23.106Z,98.90
2018-09-04T05:35:54.967Z,98.50
2018-09-04T05:38:24.190Z,98.40
2018-09-04T05:40:53.336Z,98.60
2018-09-04T05:43:55.459Z,98.60
2018-09-04T05:46:29.887Z,98.50
2018-09-04T05:48:59.561Z,98.40
2018-09-04T05:51:28.705Z,98.30
2018-09-04T05:53:58.399Z,98.30
2018-09-04T05:56:27.613Z,98.40
2018-09-04T05:58:56.750Z,98.10
2018-09-04T06:01:25.938Z,98.10
2018-09-04T06:03:55.110Z,98.00
2018-09-04T06:06:24.247Z,98.00
2018-09-04T06:08:53.397Z,98.10
2018-09-04T06:11:22.575Z,97.90
2018-09-04T06:13:51.811Z,97.60
2018-09-04T06:16:20.855Z,97.70
2018-09-04T06:18:50.040Z,97.60
2018-09-04T06:21:19.183Z,97.70
2018-09-04T06:23:48.389Z,97.60
2018-09-04T06:26:18.134Z,97.20
2018-09-04T06:28:47.265Z,97.10
2018-09-04T06:31:16.434Z,97.10
2018-09-04T06:33:45.585Z,97.00
2018-09-04T06:36:14.693Z,96.80
2018-09-04T06:38:43.855Z,96.90
2018-09-04T06:41:13.032Z,96.90
2018-09-04T06:43:42.156Z,96.70
2018-09-04T06:46:11.302Z,96.80
2018-09-04T06:48:40.477Z,96.70
2018-09-04T06:51:09.669Z,96.40
2018-09-04T06:53:38.856Z,96.40
2018-09-04T06:56:07.994Z,96.00
2018-09-04T06:58:37.130Z,95.90
2018-09-04T07:01:08.139Z,95.80
2018-09-04T07:03:37.795Z,95.50
2018-09-04T07:06:07.356Z,95.40
2018-09-04T07:08:36.479Z,95.70
2018-09-04T07:11:05.801Z,95.50
2018-09-04T07:13:34.955Z,95.30
2018-09-04T07:16:04.315Z,95.10
2018-09-04T07:18:33.466Z,95.20
2018-09-04T07:21:02.610Z,94.80
2018-09-04T07:23:31.791Z,95.00
2018-09-04T07:26:00.963Z,94.80
2018-09-04T07:28:30.110Z,94.80
2018-09-04T07:30:59.274Z,94.60
2018-09-04T07:33:28.428Z,94.60
2018-09-04T07:35:57.573Z,94.50
2018-09-04T07:38:26.728Z,94.10
2018-09-04T07:40:55.823Z,93.50
2018-09-04T07:43:24.969Z,93.20
2018-09-04T07:45:54.105Z,93.10
2018-09-04T07:48:23.290Z,93.30
2018-09-04T07:50:52.464Z,93.50
2018-09-04T07:53:21.609Z,93.40
2018-09-04T07:55:50.772Z,93.00
2018-09-04T07:58:19.906Z,92.70
2018-09-04T08:00:49.102Z,92.00
2018-09-04T08:03:18.231Z,90.10
2018-09-04T08:05:47.384Z,85.30
2018-09-04T08:08:16.509Z,81.70
2018-09-04T08:10:45.721Z,79.30
2018-09-04T08:13:14.851Z,77.00
2018-09-04T08:15:44.023Z,74.20
2018-09-04T08:18:13.161Z,72.20
2018-09-04T08:20:42.334Z,71.50
2018-09-04T08:23:11.607Z,71.00
2018-09-04T08:25:40.702Z,72.40
2018-09-04T08:28:09.889Z,74.00
2018-09-04T08:30:39.022Z,77.70
2018-09-04T08:33:08.199Z,79.80
2018-09-04T08:35:37.351Z,81.80
2018-09-04T08:38:06.523Z,83.20
2018-09-04T08:40:35.787Z,84.10
2018-09-04T08:43:04.914Z,84.30
2018-09-04T08:45:34.079Z,84.50
2018-09-04T08:48:07.418Z,84.50
2018-09-04T08:50:36.680Z,84.60
2018-09-04T08:53:05.765Z,86.20
2018-09-04T08:55:34.905Z,87.50
2018-09-04T08:58:04.078Z,87.30
2018-09-04T09:00:33.482Z,88.30
2018-09-04T09:03:02.711Z,89.50
2018-09-04T09:05:31.918Z,89.90
2018-09-04T09:08:00.999Z,90.20
2018-09-04T09:10:30.234Z,90.30
2018-09-04T09:12:59.401Z,90.40
2018-09-04T09:15:28.548Z,90.20
2018-09-04T09:17:57.694Z,90.00
2018-09-04T09:20:26.885Z,89.50
2018-09-04T09:22:56.093Z,88.30
2018-09-04T09:25:25.192Z,88.10
2018-09-04T09:27:55.386Z,88.80
2018-09-04T09:30:24.544Z,90.00
2018-09-04T09:32:53.666Z,90.40
2018-09-04T09:35:22.958Z,90.30
2018-09-04T09:37:52.127Z,90.30
2018-09-04T09:40:21.381Z,89.80
2018-09-04T09:42:50.560Z,89.00
2018-09-04T09:45:19.703Z,89.30
2018-09-04T09:47:50.731Z,89.00
2018-09-04T09:50:20.941Z,89.60
2018-09-04T09:52:50.223Z,89.20
2018-09-04T09:55:19.290Z,88.80
2018-09-04T09:57:48.435Z,88.70
2018-09-04T10:00:25.499Z,88.80
2018-09-04T10:03:00.414Z,88.70
2018-09-04T10:05:29.543Z,88.90
2018-09-04T10:07:59.847Z,89.20
2018-09-04T10:10:33.510Z,88.80
2018-09-04T10:13:05.592Z,88.40
2018-09-04T10:15:34.811Z,89.20
2018-09-04T10:18:04.094Z,88.90
2018-09-04T10:20:33.253Z,89.30
2018-09-04T10:23:03.231Z,88.30
2018-09-04T10:25:32.492Z,88.00
2018-09-04T10:28:01.711Z,87.70
2018-09-04T10:30:31.020Z,88.50
2018-09-04T10:33:00.225Z,87.30
2018-09-04T10:35:29.456Z,86.80
2018-09-04T10:37:59.555Z,86.60
2018-09-04T10:40:35.749Z,86.60
2018-09-04T10:43:10.625Z,86.10
2018-09-04T10:45:45.264Z,86.20
2018-09-04T10:48:15.889Z,86.30
2018-09-04T10:50:45.066Z,86.60
2018-09-04T10:53:14.195Z,86.90
2018-09-04T10:55:47.161Z,86.10
2018-09-04T10:58:16.435Z,86.60
2018-09-04T11:00:45.673Z,87.00
2018-09-04T11:03:14.842Z,86.00
2018-09-04T11:05:44.155Z,86.20
2018-09-04T11:08:13.307Z,86.60
2018-09-04T11:10:42.507Z,86.70
2018-09-04T11:13:11.719Z,87.20
2018-09-04T11:15:41.944Z,87.60
2018-09-04T11:18:11.440Z,86.70
2018-09-04T11:20:40.681Z,86.40
2018-09-04T11:23:09.822Z,84.90
2018-09-04T11:25:38.967Z,84.10
2018-09-04T11:28:08.188Z,85.10
2018-09-04T11:30:37.868Z,85.40
2018-09-04T11:33:07.367Z,85.10
2018-09-04T11:35:36.626Z,85.10
2018-09-04T11:38:06.825Z,84.90
2018-09-04T11:40:36.048Z,84.90
2018-09-04T11:43:05.961Z,84.50
2018-09-04T11:45:40.605Z,84.90
2018-09-04T11:48:38.578Z,84.30
2018-09-04T11:51:09.942Z,83.50
2018-09-04T11:53:39.229Z,83.10
2018-09-04T11:56:08.447Z,82.40
2018-09-04T11:58:37.619Z,82.00
2018-09-04T12:01:12.152Z,82.00
2018-09-04T12:03:41.610Z,81.60
2018-09-04T12:06:10.793Z,81.20
2018-09-04T12:08:39.927Z,81.80
2018-09-04T12:11:10.274Z,82.10
2018-09-04T12:13:39.402Z,82.30
2018-09-04T12:16:08.565Z,83.00
2018-09-04T12:18:37.799Z,83.50
2018-09-04T12:21:11.223Z,84.20
2018-09-04T12:23:40.611Z,84.40
2018-09-04T12:26:11.034Z,84.40
2018-09-04T12:28:40.226Z,84.10
2018-09-04T12:31:10.217Z,83.40
2018-09-04T12:33:39.353Z,82.80
2018-09-04T12:36:08.542Z,82.80
2018-09-04T12:38:39.661Z,83.60
2018-09-04T12:41:14.145Z,82.90
2018-09-04T12:43:43.575Z,84.00
2018-09-04T12:46:12.798Z,84.20
2018-09-04T12:48:50.404Z,83.90
2018-09-04T12:51:19.630Z,84.40
2018-09-04T12:53:48.789Z,84.20
2018-09-04T12:56:18.219Z,84.20
2018-09-04T12:58:47.482Z,84.30
2018-09-04T13:01:16.656Z,84.80
2018-09-04T13:03:45.799Z,84.60
2018-09-04T13:06:14.945Z,85.60
2018-09-04T13:08:44.122Z,85.80
2018-09-04T13:11:13.251Z,85.70
2018-09-04T13:13:42.444Z,85.50
2018-09-04T13:16:11.711Z,85.40
2018-09-04T13:18:40.861Z,85.30
2018-09-04T13:21:09.991Z,85.70
2018-09-04T13:23:39.179Z,85.50
2018-09-04T13:26:08.374Z,84.60
2018-09-04T13:28:37.621Z,84.40
2018-09-04T13:31:06.839Z,84.90
2018-09-04T13:33:35.966Z,84.80
2018-09-04T13:36:05.138Z,83.60
2018-09-04T13:38:34.437Z,83.50
2018-09-04T13:41:08.586Z,83.90
2018-09-04T13:43:39.036Z,83.10
2018-09-04T13:46:08.238Z,83.60
2018-09-04T13:48:37.460Z,83.20
2018-09-04T13:51:06.637Z,82.30
2018-09-04T13:53:35.822Z,82.20
2018-09-04T13:56:05.008Z,81.70
2018-09-04T13:58:34.135Z,82.50
2018-09-04T14:01:03.253Z,83.00
2018-09-04T14:03:32.386Z,81.20
2018-09-04T14:06:01.544Z,79.80
2018-09-04T14:08:30.678Z,79.40
2018-09-04T14:10:59.875Z,79.60
2018-09-04T14:13:29.035Z,79.90
2018-09-04T14:16:01.079Z,79.40
2018-09-04T14:18:30.201Z,79.70
2018-09-04T14:20:59.397Z,81.00
2018-09-04T14:23:28.572Z,81.00
2018-09-04T14:25:57.658Z,80.30
2018-09-04T14:28:43.965Z,80.80
2018-09-04T14:30:58.131Z,81.20
2018-09-04T14:33:27.339Z,81.30
2018-09-04T14:35:56.614Z,81.00
2018-09-04T14:38:25.739Z,80.40
2018-09-04T14:40:54.893Z,80.90
2018-09-04T14:43:24.065Z,80.00
2018-09-04T14:45:53.231Z,80.90
2018-09-04T14:48:29.078Z,80.20
2018-09-04T14:50:58.230Z,80.30
2018-09-04T14:53:27.343Z,80.90
2018-09-04T14:55:56.894Z,80.90
2018-09-04T14:58:26.021Z,80.20
2018-09-04T15:00:55.169Z,79.70
2018-09-04T15:03:24.417Z,79.90
2018-09-04T15:05:53.660Z,80.70
2018-09-04T15:08:22.781Z,79.70
2018-09-04T15:10:51.969Z,79.70
2018-09-04T15:13:21.068Z,79.70
2018-09-04T15:15:50.281Z,79.40
2018-09-04T15:18:19.418Z,79.80
2018-09-04T15:20:48.602Z,79.60
2018-09-04T15:23:17.713Z,80.60
2018-09-04T15:25:46.886Z,79.60
2018-09-04T15:28:16.211Z,79.20
2018-09-04T15:30:45.392Z,79.70
2018-09-04T15:33:14.685Z,79.50
2018-09-04T15:35:43.825Z,80.30
2018-09-04T15:38:12.994Z,79.70
2018-09-04T15:40:42.178Z,79.40
2018-09-04T15:43:11.342Z,79.00
2018-09-04T15:45:40.546Z,78.80
2018-09-04T15:48:09.687Z,78.90
2018-09-04T15:50:38.855Z,78.80
2018-09-04T15:53:08.034Z,78.10
2018-09-04T15:55:37.211Z,78.90
2018-09-04T15:58:06.422Z,78.30
2018-09-04T16:00:35.541Z,78.10
2018-09-04T16:03:04.759Z,78.50
2018-09-04T16:05:33.931Z,78.00
2018-09-04T16:08:03.143Z,78.60
2018-09-04T16:10:32.317Z,78.40
2018-09-04T16:13:01.517Z,78.80
2018-09-04T16:15:30.665Z,79.20
2018-09-04T16:17:59.785Z,79.70
2018-09-04T16:20:29.066Z,79.90
2018-09-04T16:22:58.311Z,80.60
2018-09-04T16:25:27.478Z,80.30
2018-09-04T16:27:56.606Z,80.70
2018-09-04T16:30:25.770Z,81.80
2018-09-04T16:32:54.931Z,81.40
2018-09-04T16:35:24.104Z,81.60
2018-09-04T16:37:53.219Z,81.50
2018-09-04T16:40:22.364Z,81.50
2018-09-04T16:42:51.520Z,82.10
2018-09-04T16:45:20.729Z,81.40
2018-09-04T16:47:49.899Z,81.80
2018-09-04T16:50:19.086Z,82.30
2018-09-04T16:52:48.221Z,83.60
2018-09-04T16:55:17.381Z,83.50
2018-09-04T16:57:46.587Z,83.70
2018-09-04T17:00:15.734Z,84.00
2018-09-04T17:02:44.950Z,83.90
2018-09-04T17:05:14.269Z,83.50
2018-09-04T17:07:44.249Z,83.70
2018-09-04T17:10:13.413Z,84.00
2018-09-04T17:12:42.661Z,84.40
2018-09-04T17:15:11.844Z,84.60
2018-09-04T17:17:41.033Z,84.70
2018-09-04T17:20:10.158Z,84.60
2018-09-04T17:22:39.289Z,84.80
2018-09-04T17:25:08.453Z,84.90
2018-09-04T17:27:37.913Z,84.90
2018-09-04T17:30:07.234Z,85.50
2018-09-04T17:32:36.434Z,85.70
2018-09-04T17:35:05.942Z,86.00
2018-09-04T17:37:35.151Z,86.60
2018-09-04T17:40:04.470Z,86.80
2018-09-04T17:42:33.683Z,87.10
2018-09-04T17:45:02.841Z,87.30
2018-09-04T17:47:32.210Z,88.10
2018-09-04T17:50:01.501Z,88.30
2018-09-04T17:52:30.669Z,88.10
2018-09-04T17:55:00.043Z,89.40
2018-09-04T17:57:29.311Z,89.30
2018-09-04T17:59:58.611Z,89.30
2018-09-04T18:02:27.853Z,89.60
2018-09-04T18:04:57.108Z,89.30
2018-09-04T18:07:26.330Z,90.10
2018-09-04T18:09:55.813Z,90.00
2018-09-04T18:12:25.200Z,90.10
2018-09-04T18:14:54.598Z,90.20
2018-09-04T18:17:23.864Z,90.20
2018-09-04T18:19:53.127Z,90.40
2018-09-04T18:22:22.390Z,90.30
2018-09-04T18:24:51.807Z,90.50
2018-09-04T18:27:20.998Z,90.50
2018-09-04T18:29:50.234Z,90.40
2018-09-04T18:32:19.545Z,90.90
2018-09-04T18:34:48.716Z,90.80
2018-09-04T18:37:17.958Z,90.90
2018-09-04T18:39:47.135Z,91.00
2018-09-04T18:42:16.422Z,91.00
2018-09-04T18:44:45.561Z,91.10
2018-09-04T18:47:14.706Z,90.90
2018-09-04T18:49:43.980Z,91.00
2018-09-04T18:52:13.174Z,91.20
2018-09-04T18:54:42.309Z,91.30
2018-09-04T18:57:11.478Z,91.40
2018-09-04T18:59:40.865Z,91.20
2018-09-04T19:02:10.247Z,91.40
2018-09-04T19:04:39.568Z,91.50
2018-09-04T19:07:08.859Z,91.90
2018-09-04T19:09:38.239Z,91.60
2018-09-04T19:12:07.670Z,91.60
2018-09-04T19:14:37.045Z,91.70
2018-09-04T19:17:06.570Z,91.80
2018-09-04T19:19:35.933Z,91.70
2018-09-04T19:22:05.445Z,91.70
2018-09-04T19:24:34.745Z,91.70
2018-09-04T19:27:04.149Z,91.70
2018-09-04T19:29:33.459Z,91.60
2018-09-04T19:32:03.112Z,91.80
2018-09-04T19:34:32.434Z,91.90
2018-09-04T19:37:01.738Z,92.00
2018-09-04T19:39:31.075Z,92.00
2018-09-04T19:42:00.393Z,91.90
2018-09-04T19:44:29.731Z,92.00
2018-09-04T19:46:58.948Z,92.00
2018-09-04T19:49:28.240Z,92.10
2018-09-04T19:51:57.413Z,92.40
2018-09-04T19:54:26.627Z,92.10
2018-09-04T19:56:55.859Z,92.10
2018-09-04T19:59:25.082Z,92.00
2018-09-04T20:01:54.300Z,92.20
2018-09-04T20:04:23.507Z,92.20
2018-09-04T20:06:52.715Z,92.40
2018-09-04T20:09:21.911Z,92.40
2018-09-04T20:11:51.093Z,92.40
2018-09-04T20:14:20.307Z,92.40
2018-09-04T20:16:49.498Z,92.50
2018-09-04T20:19:18.693Z,92.60
2018-09-04T20:21:47.891Z,92.70
2018-09-04T20:24:17.042Z,92.80
2018-09-04T20:26:46.222Z,92.80
2018-09-04T20:29:15.426Z,92.70
2018-09-04T20:31:44.577Z,92.80
2018-09-04T20:34:13.732Z,92.80
2018-09-04T20:36:42.910Z,92.90
2018-09-04T20:39:12.186Z,93.00
2018-09-04T20:41:41.413Z,93.00
2018-09-04T20:44:10.906Z,93.20
2018-09-04T20:46:40.077Z,93.30
2018-09-04T20:49:09.236Z,93.20
2018-09-04T20:51:38.455Z,93.20
2018-09-04T20:54:07.654Z,93.30
2018-09-04T20:56:36.841Z,93.30
2018-09-04T20:59:17.201Z,93.30
2018-09-04T21:01:57.767Z,93.40
2018-09-04T21:04:38.269Z,93.50
2018-09-04T21:07:10.601Z,93.50
2018-09-04T21:09:45.061Z,93.70
2018-09-04T21:12:14.332Z,93.80
2018-09-04T21:14:43.588Z,94.00
2018-09-04T21:17:12.867Z,93.80
2018-09-04T21:19:42.231Z,93.70
2018-09-04T21:22:11.533Z,93.70
2018-09-04T21:24:40.814Z,93.70
2018-09-04T21:27:10.298Z,93.70
2018-09-04T21:29:39.526Z,93.70
2018-09-04T21:32:08.868Z,93.80
2018-09-04T21:34:38.093Z,93.80
2018-09-04T21:37:07.338Z,93.90
2018-09-04T21:39:36.600Z,94.00
2018-09-04T21:42:05.894Z,94.00
2018-09-04T21:44:35.106Z,94.00
2018-09-04T21:47:04.550Z,94.60
2018-09-04T21:49:33.848Z,94.50
2018-09-04T21:52:03.069Z,94.70
2018-09-04T21:54:32.356Z,94.60
2018-09-04T21:57:01.643Z,94.60
2018-09-04T21:59:30.905Z,94.80
2018-09-04T22:02:00.126Z,94.90
2018-09-04T22:04:29.485Z,94.70
2018-09-04T22:06:58.924Z,94.70
2018-09-04T22:09:28.206Z,95.00
2018-09-04T22:11:57.677Z,95.20
2018-09-04T22:14:27.073Z,95.10
2018-09-04T22:16:56.293Z,95.30
2018-09-04T22:19:25.591Z,95.80
2018-09-04T22:21:54.889Z,95.80
2018-09-04T22:24:24.047Z,96.10
2018-09-04T22:26:53.279Z,96.40
2018-09-04T22:29:22.393Z,96.50
2018-09-04T22:31:51.594Z,96.40
2018-09-04T22:34:20.725Z,96.40
2018-09-04T22:36:49.887Z,96.30
2018-09-04T22:39:19.095Z,96.30
2018-09-04T22:41:48.223Z,96.40
2018-09-04T22:44:17.417Z,96.40
2018-09-04T22:46:46.630Z,96.30
2018-09-04T22:49:15.847Z,96.50
2018-09-04T22:51:45.049Z,96.30
2018-09-04T22:54:14.210Z,96.40
2018-09-04T22:56:43.396Z,96.20
2018-09-04T22:59:12.541Z,96.50
2018-09-04T23:01:41.710Z,96.20
2018-09-04T23:04:10.813Z,96.40
2018-09-04T23:06:39.987Z,96.80
2018-09-04T23:09:09.170Z,97.00
2018-09-04T23:11:38.421Z,97.10
2018-09-04T23:14:07.619Z,97.30
2018-09-04T23:16:36.770Z,97.30
2018-09-04T23:19:06.210Z,97.50
2018-09-04T23:21:35.379Z,97.60
2018-09-04T23:24:04.603Z,97.40
2018-09-04T23:26:33.778Z,97.50
2018-09-04T23:29:03.063Z,97.80
2018-09-04T23:31:32.221Z,98.00
2018-09-04T23:34:01.396Z,98.00
2018-09-04T23:36:30.536Z,97.90
2018-09-04T23:38:59.726Z,98.10
2018-09-04T23:41:28.962Z,98.30
2018-09-04T23:43:58.095Z,98.30
2018-09-04T23:46:27.224Z,98.60
2018-09-04T23:48:56.391Z,98.80
2018-09-04T23:51:25.541Z,98.80
2018-09-04T23:53:54.688Z,98.50
2018-09-04T23:56:23.916Z,98.60
2018-09-04T23:58:53.042Z,98.90
